• Join FlightAware (Why Join?)
  • Login
  • US Flag GB Flag 
06:28 EDT


 

Airport Tracker/Info


-or-


 

Live Flight TrackerFlight Track Log ✈ EJA922 ✈ 12-Jan-2014 ✈ KHPN - KSFO

Flight Track Log - Related Links

Times and Time Zones

All times are in EST time to prevent confusion due to time zone crossing. See the EJA922 flight status page for this flight to view local times or setup timezone preferences in your user account.

Time Position Orientation Groundspeed Altitude Reporting Facility
EST Latitude Longitude Course Direction KTS MPH feet Rate Location/Type
18:04 41.1000 -73.7333 282° West 179 206 2,500  Level New York TRACON
18:06 41.1208 -73.8697 282° West 189 217 8,500 3,000 Climbing New York Center
18:07 41.1586 -73.9375 307° West 214 246 11,300 2,580 Climbing New York Center
18:08 41.2047 -74.0114 310° West 243 280 13,700 2,340 Climbing New York Center
18:09 41.2464 -74.0825 308° West 265 305 16,000 1,140 Climbing New York Center
18:10 41.3100 -74.1906 308° West 318 366 16,000  Level New York Center
18:11 41.3675 -74.2903 308° West 361 415 16,000 600 Level New York Center
18:12 41.4344 -74.4181 305° West 385 443 17,300 1,380 Climbing New York Center
18:13 41.4808 -74.5286 299° West 397 457 18,800 1,620 Climbing New York Center
18:14 41.5350 -74.6536 300° West 390 449 20,600 1,860 Climbing New York Center
18:15 41.5853 -74.7758 299° West 385 443 22,600 1,980 Climbing New York Center
18:16 41.6375 -74.8900 301° West 379 436 24,600 1,740 Climbing New York Center
18:17 41.6872 -75.0125 299° West 379 436 26,100 1,560 Climbing New York Center
18:18 41.7392 -75.1325 300° West 374 430 27,800 1,800 Climbing New York Center
18:19 41.7906 -75.2583 299° West 379 436 29,700 1,740 Climbing New York Center
18:20 41.8444 -75.3789 301° West 379 436 31,400 1,860 Climbing New York Center
18:21 41.8956 -75.5050 299° West 384 442 33,500 2,340 Climbing New York Center
18:22 41.9450 -75.6256 299° West 384 442 36,100 1,920 Climbing New York Center
18:23 41.9922 -75.7406 299° West 372 428 37,400 900 Climbing New York Center
18:24 42.0433 -75.8589 300° West 367 422 37,900 540 Climbing New York Center
18:25 42.0942 -75.9858 298° West 373 429 38,500 540 Climbing New York Center
18:26 42.1486 -76.1161 299° West 387 445 39,000 540 Climbing New York Center
18:27 42.1733 -76.2608 283° West 387 445 39,600 600 Climbing New York Center
18:28 42.1956 -76.4081 282° West 398 458 40,300 720 Climbing New York Center
18:29 42.2136 -76.5553 279° West 398 458 41,100 720 Climbing New York Center
18:30 42.2333 -76.7028 280° West 398 458 41,800 720 Climbing New York Center
18:31 42.2558 -76.8758 280° West 393 452 42,700 540 Climbing Cleveland Center
18:32 42.2731 -77.0194 279° West 388 447 43,000 120 Climbing Cleveland Center
18:33 42.2886 -77.1625 278° West 385 443 43,000  Level Cleveland Center
18:34 42.3033 -77.3067 278° West 387 445 43,000  Level Cleveland Center
18:35 42.3183 -77.4517 278° West 388 447 43,000  Level Cleveland Center
18:36 42.3319 -77.5989 277° West 391 450 43,000  Level Cleveland Center
18:37 42.3503 -77.7761 278° West 393 452 43,000  Level Cleveland Center
18:38 42.3642 -77.9231 277° West 391 450 43,000  Level Cleveland Center
18:39 42.3778 -78.0678 277° West 388 447 43,000  Level Cleveland Center
18:40 42.3917 -78.2139 277° West 391 450 43,000  Level Cleveland Center
18:41 42.4050 -78.3600 277° West 392 451 43,000  Level Cleveland Center
18:42 42.4178 -78.5058 277° West 389 448 43,000  Level Cleveland Center
18:43 42.4306 -78.6525 277° West 392 451 43,000  Level Cleveland Center
18:44 42.4444 -78.7997 277° West 394 453 43,000  Level Cleveland Center
18:45 42.4619 -78.9744 278° West 390 449 43,000  Level Cleveland Center
18:46 42.4728 -79.1178 276° West 386 444 43,000  Level Cleveland Center
18:47 42.4858 -79.2606 277° West 383 441 43,000  Level Cleveland Center
18:48 42.4978 -79.4047 276° West 386 444 43,000  Level Cleveland Center
18:49 42.5094 -79.5486 276° West 385 443 43,000  Level Cleveland Center
18:50 42.5219 -79.6978 277° West 398 458 43,000  Level Cleveland Center
18:52 42.5356 -79.8753 276° West 396 456 43,000  Level Cleveland Center
18:53 42.5450 -80.0264 275° West 398 458 43,000  Level Cleveland Center
18:54 42.5558 -80.1717 276° West 387 445 43,000  Level Cleveland Center
18:55 42.5675 -80.3178 276° West 386 444 43,000  Level Cleveland Center
18:56 42.5789 -80.4636 276° West 385 443 43,000  Level Cleveland Center
18:57 42.5900 -80.6100 276° West 385 443 43,000  Level Cleveland Center
18:58 42.6008 -80.7628 276° West 405 466 43,000  Level Cleveland Center
18:59 42.6114 -80.9125 276° West 399 459 43,000  Level Cleveland Center
19:00 42.6233 -81.0869 275° West 397 457 43,000  Level Cleveland Center
19:01 42.6333 -81.2400 275° West 403 464 43,000  Level Cleveland Center
19:02 42.6436 -81.3914 275° West 402 463 43,000  Level Cleveland Center
19:03 42.6531 -81.5442 275° West 404 465 43,000  Level Cleveland Center
19:04 42.6631 -81.6975 275° West 405 466 43,000  Level Cleveland Center
19:05 42.6744 -81.8642 275° West 408 470 43,000  Level Cleveland Center
19:06 42.6828 -82.0181 274° West 410 472 43,000  Level Cleveland Center
19:07 42.6917 -82.1711 275° West 408 470 43,000  Level Cleveland Center
19:08 42.7014 -82.3244 275° West 410 472 43,000  Level Cleveland Center
19:09 42.7106 -82.4794 275° West 412 474 43,000  Level Cleveland Center
19:10 42.7189 -82.6333 274° West 411 473 43,000  Level Cleveland Center
19:11 42.7286 -82.8192 274° West 413 475 43,000  Level Cleveland Center
19:12 42.7364 -82.9739 274° West 413 475 43,000  Level Cleveland Center
19:13 42.7450 -83.1275 274° West 411 473 43,000  Level Cleveland Center
19:14 42.7522 -83.2792 274° West 407 468 43,000  Level Cleveland Center
19:15 42.7594 -83.4319 274° West 408 470 43,000  Level Cleveland Center
19:16 42.7669 -83.5833 274° West 406 467 43,000  Level Cleveland Center
19:17 42.7753 -83.7672 274° West 408 470 43,000  Level Cleveland Center
19:18 42.7822 -83.9194 274° West 407 468 43,000  Level Cleveland Center
19:19 42.7892 -84.0722 274° West 407 468 43,000  Level Cleveland Center
19:20 42.7956 -84.2250 273° West 408 470 43,000  Level Cleveland Center
19:21 42.8017 -84.3761 273° West 405 466 43,000  Level Cleveland Center
19:22 42.8047 -84.4675 273° West 404 465 43,000  Level Chicago Center
19:23 42.8103 -84.6178 273° West 401 461 43,000  Level Chicago Center
19:24 42.8164 -84.7681 273° West 399 459 43,000  Level Chicago Center
19:25 42.8214 -84.9169 273° West 396 456 43,000  Level Chicago Center
19:26 42.8269 -85.0644 273° West 393 452 43,000  Level Chicago Center
19:27 42.8322 -85.2444 272° West 396 456 43,000  Level Chicago Center
19:28 42.8369 -85.3928 273° West 394 453 43,000  Level Chicago Center
19:29 42.8419 -85.5439 273° West 397 457 43,000  Level Chicago Center
19:30 42.8458 -85.6956 272° West 399 459 43,000  Level Chicago Center
19:31 42.8497 -85.8467 272° West 398 458 43,000  Level Chicago Center
19:32 42.8503 -85.9992 270° West 395 455 43,000  Level Chicago Center
19:33 42.8492 -86.1503 269° West 392 451 43,000  Level Chicago Center
19:34 42.8472 -86.3011 269° West 393 452 43,000  Level Chicago Center
19:35 42.8456 -86.4814 269° West 396 456 43,000  Level Chicago Center
19:36 42.8433 -86.6297 269° West 393 452 43,000  Level Chicago Center
19:37 42.8406 -86.7775 269° West 391 450 43,000  Level Chicago Center
19:38 42.8383 -86.9275 269° West 394 453 43,000  Level Chicago Center
19:39 42.8361 -87.0758 269° West 392 451 43,000  Level Chicago Center
19:40 42.8339 -87.2250 269° West 393 452 43,000  Level Chicago Center
19:41 42.8300 -87.3978 268° West 398 458 43,000  Level Chicago Center
19:43 42.8272 -87.5489 269° West 399 459 43,000 60 Level Chicago Center
19:44 42.8239 -87.7089 268° West 402 463 43,200 300 Climbing Chicago Center
19:45 42.8197 -87.8533 268° West 402 463 43,700 480 Climbing Chicago Center
19:46 42.8178 -88.0039 269° West 399 459 44,300 600 Climbing Chicago Center
19:47 42.8122 -88.1828 268° West 393 452 45,000 300 Climbing Chicago Center
19:48 42.8083 -88.3294 268° West 388 447 45,000  Level Chicago Center
19:49 42.8044 -88.4803 268° West 396 456 45,000  Level Chicago Center
19:50 42.8000 -88.6325 268° West 401 461 45,000  Level Chicago Center
19:51 42.7944 -88.7836 267° West 401 461 45,000  Level Chicago Center
19:52 42.7894 -88.9350 267° West 400 460 45,000  Level Chicago Center
19:53 42.7856 -89.0867 268° West 402 463 45,000  Level Chicago Center
19:54 42.7803 -89.2375 267° West 399 459 45,000  Level Chicago Center
19:55 42.7733 -89.4144 267° West 393 452 45,000  Level Chicago Center
19:56 42.7672 -89.5625 267° West 393 452 45,000  Level Chicago Center
19:57 42.7622 -89.7106 267° West 393 452 45,000  Level Chicago Center
19:58 42.7569 -89.8572 267° West 392 451 45,000  Level Chicago Center
19:59 42.7497 -90.0117 266° West 392 451 45,000  Level Chicago Center
20:00 42.7433 -90.1572 267° West 392 451 45,000  Level Chicago Center
20:01 42.7383 -90.3042 267° West 393 452 45,000  Level Chicago Center
20:02 42.7311 -90.4514 266° West 393 452 45,000  Level Chicago Center
20:03 42.7236 -90.6286 267° West 399 459 45,000  Level Chicago Center
20:04 42.7158 -90.7764 266° West 397 457 45,000  Level Chicago Center
20:05 42.7083 -90.9267 266° West 400 460 45,000  Level Chicago Center
20:06 42.7017 -91.0783 267° West 405 466 45,000  Level Chicago Center
20:07 42.6928 -91.2319 266° West 408 470 45,000  Level Chicago Center
20:08 42.6844 -91.3842 266° West 407 468 45,000  Level Chicago Center
20:09 42.6717 -91.5575 264° West 390 449 45,000  Level Chicago Center
20:10 42.6636 -91.7056 266° West 390 449 45,000  Level Chicago Center
20:11 42.6561 -91.8625 266° West 389 448 45,000  Level Chicago Center
20:12 42.6472 -92.0081 265° West 388 447 45,000  Level Chicago Center
20:13 42.6375 -92.1542 265° West 390 449 45,000  Level Chicago Center
20:14 42.6286 -92.3033 265° West 396 456 45,000  Level Chicago Center
20:15 42.6189 -92.4528 265° West 399 459 45,000  Level Chicago Center
20:17 42.6075 -92.6047 264° West 405 466 45,000  Level Chicago Center
20:18 42.5972 -92.7864 266° West 406 467 45,000  Level Chicago Center
20:19 42.5878 -92.9417 265° West 414 476 45,000  Level Chicago Center
20:20 42.5769 -93.0933 265° West 409 471 45,000  Level Chicago Center
20:21 42.5650 -93.2450 264° West 407 468 45,000  Level Chicago Center
20:22 42.5547 -93.3978 265° West 409 471 45,000  Level Chicago Center
20:23 42.5436 -93.5503 264° West 410 472 45,000  Level Chicago Center
20:24 42.5297 -93.7333 264° West 410 472 45,000  Level Chicago Center
20:25 42.5156 -93.8844 263° West 409 471 45,000  Level Chicago Center
20:26 42.4994 -94.0372 262° West 410 472 45,000  Level Chicago Center
20:27 42.4867 -94.1897 264° West 410 472 45,000  Level Chicago Center
20:28 42.4806 -94.4089 268° West 415 478 45,000  Level Minneapolis Center
20:29 42.4639 -94.5892 263° West 416 479 45,000  Level Minneapolis Center
20:30 42.4519 -94.7467 264° West 419 482 45,000  Level Minneapolis Center
20:31 42.4389 -94.9028 264° West 419 482 45,000  Level Minneapolis Center
20:32 42.4253 -95.0597 263° West 420 483 45,000  Level Minneapolis Center
20:33 42.4103 -95.2161 263° West 420 483 45,000  Level Minneapolis Center
20:34 42.3964 -95.3744 263° West 424 488 45,000  Level Minneapolis Center
20:35 42.3819 -95.5328 263° West 425 489 45,000  Level Minneapolis Center
20:36 42.3647 -95.7233 263° West 427 491 45,000  Level Minneapolis Center
20:37 42.3494 -95.8800 263° West 425 489 45,000  Level Minneapolis Center
20:39 42.3347 -96.0403 263° West 429 494 45,000  Level Minneapolis Center
20:40 42.3186 -96.1981 262° West 428 493 45,000  Level Minneapolis Center
20:41 42.3039 -96.3567 263° West 429 494 45,000  Level Minneapolis Center
20:42 42.2867 -96.5208 262° West 435 501 45,000  Level Minneapolis Center
20:43 42.2703 -96.6817 262° West 435 501 45,000  Level Minneapolis Center
20:44 42.2500 -96.8761 262° West 436 502 45,000  Level Minneapolis Center
20:45 42.2331 -97.0372 262° West 436 502 45,000  Level Minneapolis Center
20:46 42.2169 -97.1981 262° West 436 502 45,000  Level Minneapolis Center
20:47 42.1997 -97.3608 262° West 437 503 45,000  Level Minneapolis Center
20:48 42.1822 -97.5244 262° West 439 505 45,000  Level Minneapolis Center
20:49 42.1650 -97.6867 262° West 439 505 45,000  Level Minneapolis Center
20:50 42.1461 -97.8522 261° West 441 507 45,000  Level Minneapolis Center
20:51 42.1239 -98.0494 261° West 445 512 45,000  Level Minneapolis Center
20:52 42.1042 -98.2114 261° West 442 509 45,000  Level Minneapolis Center
20:53 42.0856 -98.3750 261° West 442 509 45,000  Level Minneapolis Center
20:54 42.0664 -98.5375 261° West 442 509 45,000  Level Minneapolis Center
20:55 42.0481 -98.6983 261° West 440 506 45,000  Level Minneapolis Center
20:56 42.0283 -98.8597 261° West 440 506 45,000  Level Minneapolis Center
20:57 42.0089 -99.0211 261° West 439 505 45,000  Level Minneapolis Center
20:58 41.9850 -99.2139 261° West 438 504 45,000  Level Minneapolis Center
20:59 41.9650 -99.3744 261° West 438 504 45,000  Level Minneapolis Center
21:00 41.9450 -99.5331 260° West 436 502 45,000  Level Minneapolis Center
21:01 41.9278 -99.6628 260° West 437 503 45,000  Level Denver Center
21:02 41.9036 -99.8447 260° West 439 505 45,000  Level Denver Center
21:03 41.8833 -99.9983 260° West 439 505 45,000  Level Denver Center
21:04 41.8594 -100.1803 260° West 443 510 45,000  Level Denver Center
21:05 41.8386 -100.3353 260° West 444 511 45,000  Level Denver Center
21:06 41.8136 -100.5172 260° West 445 512 45,000  Level Denver Center
21:07 41.7919 -100.6744 260° West 449 517 45,000  Level Denver Center
21:08 41.7669 -100.8583 260° West 451 519 45,000  Level Denver Center
21:09 41.7444 -101.0167 259° West 452 520 45,000  Level Denver Center
21:10 41.7225 -101.1747 260° West 454 522 45,000  Level Denver Center
21:11 41.6953 -101.3589 259° West 455 524 45,000  Level Denver Center
21:12 41.6733 -101.5181 260° West 455 524 45,000  Level Denver Center
21:13 41.6453 -101.7039 259° West 458 527 45,000  Level Denver Center
21:14 41.6217 -101.8642 259° West 460 529 45,000  Level Denver Center
21:15 41.5928 -102.0522 258° West 463 533 45,000  Level Denver Center
21:16 41.5697 -102.2131 259° West 462 532 45,000  Level Denver Center
21:17 41.5397 -102.4036 258° West 469 540 45,000  Level Denver Center
21:18 41.5139 -102.5681 258° West 472 543 45,000  Level Denver Center
21:19 41.4889 -102.7311 258° West 466 536 45,000  Level Denver Center
21:20 41.4592 -102.9183 258° West 463 533 45,000  Level Denver Center
21:21 41.4325 -103.0783 258° West 463 533 45,000  Level Denver Center
21:23 41.4033 -103.2644 258° West 460 529 45,000  Level Denver Center
21:24 41.3772 -103.4250 258° West 462 532 45,000  Level Denver Center
21:25 41.3506 -103.5850 258° West 462 532 45,000  Level Denver Center
21:26 41.3192 -103.7722 257° West 464 534 45,000  Level Denver Center
21:27 41.2933 -103.9308 258° West 459 528 45,000  Level Denver Center
21:28 41.2622 -104.1144 257° West 456 525 45,000  Level Denver Center
21:29 41.2347 -104.2736 257° West 460 529 45,000  Level Denver Center
21:30 41.2075 -104.4292 257° West 453 521 45,000  Level Denver Center
21:31 41.1767 -104.6142 258° West 457 526 45,000  Level Denver Center
21:32 41.1478 -104.7708 256° West 456 525 45,000  Level Denver Center
21:33 41.1158 -104.9528 257° West 454 522 45,000  Level Denver Center
21:34 41.0875 -105.1131 257° West 461 531 45,000  Level Denver Center
21:35 41.0583 -105.2683 256° West 457 526 45,000  Level Denver Center
21:36 41.0253 -105.4544 257° West 464 534 45,000  Level Denver Center
21:37 40.9969 -105.6044 256° West 465 535 45,100  Climbing Denver Center
21:38 40.9603 -105.8028 256° West 466 536 45,100 -60 Level Denver Center
21:39 40.9306 -105.9647 256° West 459 528 45,000 -60 Descending Denver Center
21:40 40.8986 -106.1294 256° West 463 533 45,000  Level Denver Center
21:41 40.8675 -106.2967 256° West 469 540 45,000  Level Denver Center
21:42 40.8314 -106.4847 256° West 474 545 45,000  Level Denver Center
21:43 40.8006 -106.6442 256° West 471 542 45,000  Level Denver Center
21:44 40.7700 -106.8019 256° West 465 535 45,000  Level Denver Center
21:45 40.7394 -106.9578 256° West 462 532 45,000  Level Denver Center
21:46 40.7000 -107.1564 255° West 465 535 45,000  Level Denver Center
21:47 40.6667 -107.3200 255° West 473 544 45,000  Level Denver Center
21:48 40.6292 -107.5075 255° West 475 547 45,000  Level Denver Center
21:49 40.5961 -107.6669 255° West 474 545 45,000  Level Denver Center
21:50 40.5631 -107.8267 255° West 474 545 45,000  Level Denver Center
21:51 40.5250 -108.0172 255° West 482 555 45,000  Level Denver Center
21:52 40.4892 -108.1797 254° West 484 557 45,000  Level Denver Center
21:53 40.4497 -108.3703 255° West 484 557 45,000  Level Denver Center
21:54 40.4114 -108.5517 255° West 489 563 45,000  Level Salt Lake Center
21:55 40.3761 -108.7169 254° West 490 564 45,000  Level Salt Lake Center
21:56 40.3389 -108.8861 254° West 482 555 45,000  Level Salt Lake Center
21:57 40.2992 -109.0694 254° West 474 545 45,000  Level Salt Lake Center
21:58 40.2644 -109.2272 254° West 472 543 45,000  Level Salt Lake Center
22:00 40.2239 -109.4103 254° West 471 542 45,000  Level Salt Lake Center
22:01 40.1892 -109.5653 254° West 467 537 45,000  Level Salt Lake Center
22:02 40.1489 -109.7472 254° West 468 539 45,000  Level Salt Lake Center
22:03 40.1139 -109.9008 253° West 464 534 45,000  Level Salt Lake Center
22:04 40.0792 -110.0544 254° West 463 533 45,000  Level Salt Lake Center
22:05 40.0372 -110.2333 253° West 463 533 45,000  Level Salt Lake Center
22:06 40.0022 -110.3878 254° West 465 535 45,000  Level Salt Lake Center
22:07 39.9617 -110.5636 253° West 456 525 45,000  Level Salt Lake Center
22:08 39.9272 -110.7136 253° West 453 521 45,000  Level Salt Lake Center
22:09 39.8919 -110.8650 253° West 454 522 45,000  Level Salt Lake Center
22:10 39.8481 -111.0450 252° West 465 535 45,000  Level Salt Lake Center
22:11 39.8108 -111.2006 253° West 469 540 45,000  Level Salt Lake Center
22:12 39.7700 -111.3678 252° West 473 544 45,000 -60 Level Salt Lake Center
22:13 39.7306 -111.5311 253° West 474 545 44,900  Descending Salt Lake Center
22:14 39.6911 -111.6925 252° West 470 541 45,000  Climbing Salt Lake Center
22:15 39.6503 -111.8553 252° West 475 547 45,000  Level Salt Lake Center
22:16 39.6019 -112.0528 252° West 477 549 45,000  Level Salt Lake Center
22:17 39.5608 -112.2164 252° West 477 549 45,000  Level Salt Lake Center
22:18 39.5203 -112.3831 253° West 483 556 45,000  Level Salt Lake Center
22:19 39.4772 -112.5497 252° West 487 560 45,000  Level Salt Lake Center
22:20 39.4353 -112.7089 251° West 481 554 45,000  Level Salt Lake Center
22:21 39.3928 -112.8756 252° West 486 559 45,000  Level Salt Lake Center
22:22 39.3508 -113.0403 252° West 485 558 45,000  Level Salt Lake Center
22:23 39.2992 -113.2358 251° West 483 556 45,000  Level Salt Lake Center
22:24 39.2567 -113.4011 252° West 485 558 45,000  Level Salt Lake Center
22:25 39.2136 -113.5656 251° West 488 562 45,000  Level Salt Lake Center
22:26 39.1703 -113.7289 251° West 485 558 45,000  Level Salt Lake Center
22:27 39.1261 -113.8914 251° West 484 557 45,000  Level Salt Lake Center
22:28 39.0817 -114.0539 251° West 484 557 45,100  Climbing Salt Lake Center
22:29 39.0378 -114.2156 251° West 484 557 45,000 -60 Descending Salt Lake Center
22:30 38.9858 -114.4072 251° West 478 550 45,000  Level Salt Lake Center
22:31 38.9414 -114.5683 251° West 480 552 45,000  Level Salt Lake Center
22:32 38.8978 -114.7292 251° West 480 552 45,000  Level Salt Lake Center
22:33 38.8536 -114.8914 251° West 482 555 45,000  Level Salt Lake Center
22:34 38.8083 -115.0517 250° West 481 554 45,000  Level Salt Lake Center
22:35 38.7617 -115.2122 250° West 482 555 45,000  Level Salt Lake Center
22:36 38.7089 -115.3981 250° West 485 558 45,000  Level Salt Lake Center
22:37 38.6628 -115.5578 250° West 479 551 45,000  Level Salt Lake Center
22:39 38.6164 -115.7178 250° West 479 551 45,000  Level Salt Lake Center
22:40 38.5714 -115.8758 250° West 477 549 45,000  Level Salt Lake Center
22:41 38.5258 -116.0336 250° West 474 545 45,000  Level Salt Lake Center
22:42 38.4800 -116.1911 250° West 473 544 45,000  Level Salt Lake Center
22:43 38.4342 -116.3469 249° West 470 541 45,000  Level Salt Lake Center
22:44 38.3867 -116.5044 249° West 475 547 45,000  Level Salt Lake Center
22:45 38.3317 -116.6928 250° West 474 545 45,000  Level Salt Lake Center
22:46 38.2847 -116.8492 249° West 473 544 45,000  Level Salt Lake Center
22:47 38.2378 -117.0042 249° West 470 541 45,000  Level Salt Lake Center
22:48 38.1897 -117.1631 249° West 467 537 45,000  Level Salt Lake Center
22:48 38.1619 -117.2511 248° West 474 545 45,000  Level Oakland Center
22:49 38.1164 -117.4050 249° West 469 540 45,000  Level Oakland Center
22:50 38.0831 -117.5806 256° West 453 521 45,000  Level Oakland Center
22:51 38.0647 -117.7375 262° West 449 517 45,000  Level Oakland Center
22:52 38.0450 -117.8936 261° West 448 516 45,000  Level Oakland Center
22:53 38.0258 -118.0506 261° West 449 517 45,000  Level Oakland Center
22:55 38.0061 -118.2072 261° West 449 517 45,000  Level Oakland Center
22:56 37.9858 -118.3672 261° West 458 527 45,000  Level Oakland Center
22:57 37.9656 -118.5242 261° West 452 520 45,000  Level Oakland Center
22:58 37.9450 -118.6825 261° West 455 524 45,000  Level Oakland Center
22:59 37.9258 -118.8397 261° West 453 521 45,000  Level Oakland Center
23:00 37.8997 -119.0308 260° West 457 526 45,000  Level Oakland Center
23:01 37.8811 -119.1717 261° West 464 534 45,000  Level Oakland Center
23:02 37.8583 -119.3358 260° West 471 542 45,000 -720 Level Oakland Center
23:03 37.8364 -119.5019 261° West 477 549 43,600 -1,920 Descending Oakland Center
23:04 37.8133 -119.6600 260° West 460 529 41,200 -2,700 Descending Oakland Center
23:05 37.7878 -119.8547 261° West 473 544 38,200 -2,760 Descending Oakland Center
23:06 37.7622 -120.0286 260° West 497 572 35,600 -2,640 Descending Oakland Center
23:07 37.7378 -120.1997 260° West 497 572 32,900 -2,700 Descending Oakland Center
23:08 37.7119 -120.3789 260° West 513 590 30,200 -2,700 Descending Oakland Center
23:09 37.6864 -120.5544 260° West 508 585 27,500 -2,640 Descending Oakland Center
23:10 37.6614 -120.7225 259° West 495 570 24,900 -2,460 Descending Oakland Center
23:11 37.6406 -120.8681 260° West 432 497 22,600 -2,280 Descending Oakland Center
23:12 37.6333 -120.9667 265° West 388 447 21,000 -2,040 Descending Northern Cal TRACON
23:13 37.6167 -121.1000 261° West 378 435 19,100 -2,040 Descending Northern Cal TRACON
23:14 37.6000 -121.2333 261° West 367 422 17,000 -1,920 Descending Northern Cal TRACON
23:15 37.5833 -121.3500 260° West 347 399 15,300 -1,800 Descending Northern Cal TRACON
23:16 37.5667 -121.4667 260° West 347 399 13,500 -1,860 Descending Northern Cal TRACON
23:17 37.5500 -121.5833 260° West 345 397 11,600 -1,560 Descending Northern Cal TRACON
23:18 37.5333 -121.6833 258° West 315 362 10,400 -1,500 Descending Northern Cal TRACON
23:19 37.4833 -121.7833 238° Southwest 292 336 8,700 -1,200 Descending Northern Cal TRACON
23:20 37.4500 -121.8833 247° West 287 330 8,000 -360 Descending Northern Cal TRACON
23:21 37.4833 -121.9667 297° West 262 302 8,000 -720 Level Northern Cal TRACON
23:22 37.5167 -122.0500 297° West 278 320 6,600 -2,340 Descending Northern Cal TRACON
23:23 37.5333 -122.1333 284° West 267 307 3,400 -2,340 Descending Northern Cal TRACON
23:24 37.5500 -122.2167 284° West 235 270 2,000 -1,020 Descending Northern Cal TRACON
23:25 37.5833 -122.2833 302° West 181 208 1,400 -660 Descending Northern Cal TRACON
23:26 37.6000 -122.3333 293° West 140 161 700 -540 Descending Northern Cal TRACON
23:27 37.6258 -122.3889 300° West 158 182 200 -360 Descending Oakland Center
23:29 37.6167 -122.3667 90° East  Level FlightAware Approximate
23:36 37.6191 -122.3752 90° East  Level Estimated